sensor_id;sensor_type;location;lat;lon;timestamp;P1;durP1;ratioP1;P2;durP2;ratioP2
68229;SDS011;55048;52.220;5.160;2022-08-19T00:00:15;4.18;;;3.55;;
68229;SDS011;55048;52.220;5.160;2022-08-19T00:02:41;5.75;;;3.38;;
68229;SDS011;55048;52.220;5.160;2022-08-19T00:05:08;4.60;;;3.17;;
68229;SDS011;55048;52.220;5.160;2022-08-19T00:07:35;3.67;;;3.28;;
68229;SDS011;55048;52.220;5.160;2022-08-19T00:10:00;13.23;;;3.53;;
68229;SDS011;55048;52.220;5.160;2022-08-19T00:12:26;7.57;;;3.00;;
68229;SDS011;55048;52.220;5.160;2022-08-19T00:14:51;3.40;;;2.92;;
68229;SDS011;55048;52.220;5.160;2022-08-19T00:17:19;5.43;;;3.20;;
68229;SDS011;55048;52.220;5.160;2022-08-19T00:19:44;4.88;;;3.30;;
68229;SDS011;55048;52.220;5.160;2022-08-19T00:22:10;4.63;;;2.97;;
68229;SDS011;55048;52.220;5.160;2022-08-19T00:24:35;3.83;;;2.63;;
68229;SDS011;55048;52.220;5.160;2022-08-19T00:27:03;5.28;;;3.10;;
68229;SDS011;55048;52.220;5.160;2022-08-19T00:29:29;3.40;;;3.10;;
68229;SDS011;55048;52.220;5.160;2022-08-19T00:31:55;5.82;;;2.95;;
68229;SDS011;55048;52.220;5.160;2022-08-19T00:34:23;5.18;;;3.13;;
68229;SDS011;55048;52.220;5.160;2022-08-19T00:36:49;5.40;;;2.80;;
68229;SDS011;55048;52.220;5.160;2022-08-19T00:39:15;4.57;;;2.85;;
68229;SDS011;55048;52.220;5.160;2022-08-19T00:41:42;5.82;;;2.78;;
68229;SDS011;55048;52.220;5.160;2022-08-19T00:44:11;3.10;;;2.90;;
68229;SDS011;55048;52.220;5.160;2022-08-19T00:46:40;4.78;;;2.90;;
68229;SDS011;55048;52.220;5.160;2022-08-19T00:49:13;4.57;;;2.92;;
68229;SDS011;55048;52.220;5.160;2022-08-19T00:51:43;8.40;;;3.00;;
68229;SDS011;55048;52.220;5.160;2022-08-19T00:54:10;5.07;;;2.58;;
68229;SDS011;55048;52.220;5.160;2022-08-19T00:56:36;3.88;;;2.47;;
68229;SDS011;55048;52.220;5.160;2022-08-19T00:59:02;6.72;;;2.75;;
68229;SDS011;55048;52.220;5.160;2022-08-19T01:01:33;3.53;;;2.88;;
68229;SDS011;55048;52.220;5.160;2022-08-19T01:03:59;4.18;;;3.15;;
68229;SDS011;55048;52.220;5.160;2022-08-19T01:06:25;6.07;;;3.42;;
68229;SDS011;55048;52.220;5.160;2022-08-19T01:08:51;4.18;;;3.08;;
68229;SDS011;55048;52.220;5.160;2022-08-19T01:11:16;3.72;;;3.42;;
68229;SDS011;55048;52.220;5.160;2022-08-19T01:13:42;6.03;;;4.03;;
68229;SDS011;55048;52.220;5.160;2022-08-19T01:16:08;4.00;;;3.60;;
68229;SDS011;55048;52.220;5.160;2022-08-19T01:18:36;4.28;;;3.63;;
68229;SDS011;55048;52.220;5.160;2022-08-19T01:21:06;7.90;;;3.77;;
68229;SDS011;55048;52.220;5.160;2022-08-19T01:23:35;3.75;;;3.45;;
68229;SDS011;55048;52.220;5.160;2022-08-19T01:26:20;9.55;;;3.85;;
68229;SDS011;55048;52.220;5.160;2022-08-19T01:28:49;5.22;;;3.80;;
68229;SDS011;55048;52.220;5.160;2022-08-19T01:31:18;10.00;;;4.03;;
68229;SDS011;55048;52.220;5.160;2022-08-19T01:33:46;4.93;;;4.25;;
68229;SDS011;55048;52.220;5.160;2022-08-19T01:36:26;5.53;;;4.40;;
68229;SDS011;55048;52.220;5.160;2022-08-19T01:38:54;7.03;;;4.72;;
68229;SDS011;55048;52.220;5.160;2022-08-19T01:41:20;4.75;;;4.20;;
68229;SDS011;55048;52.220;5.160;2022-08-19T01:43:48;4.57;;;4.18;;
68229;SDS011;55048;52.220;5.160;2022-08-19T01:46:15;7.18;;;4.47;;
68229;SDS011;55048;52.220;5.160;2022-08-19T01:48:41;4.90;;;4.50;;
68229;SDS011;55048;52.220;5.160;2022-08-19T01:51:08;5.30;;;4.78;;
68229;SDS011;55048;52.220;5.160;2022-08-19T01:53:35;5.82;;;4.53;;
68229;SDS011;55048;52.220;5.160;2022-08-19T01:56:01;10.13;;;4.68;;
68229;SDS011;55048;52.220;5.160;2022-08-19T01:58:29;5.35;;;4.20;;
68229;SDS011;55048;52.220;5.160;2022-08-19T02:01:01;4.25;;;3.88;;
68229;SDS011;55048;52.220;5.160;2022-08-19T02:03:26;6.60;;;4.47;;
68229;SDS011;55048;52.220;5.160;2022-08-19T02:05:56;6.25;;;4.13;;
68229;SDS011;55048;52.220;5.160;2022-08-19T02:08:23;5.80;;;4.57;;
68229;SDS011;55048;52.220;5.160;2022-08-19T02:10:49;5.70;;;4.90;;
68229;SDS011;55048;52.220;5.160;2022-08-19T02:13:14;6.05;;;5.45;;
68229;SDS011;55048;52.220;5.160;2022-08-19T02:15:40;8.43;;;4.22;;
68229;SDS011;55048;52.220;5.160;2022-08-19T02:18:05;5.82;;;5.32;;
68229;SDS011;55048;52.220;5.160;2022-08-19T02:20:33;7.35;;;5.10;;
68229;SDS011;55048;52.220;5.160;2022-08-19T02:22:58;7.82;;;5.07;;
68229;SDS011;55048;52.220;5.160;2022-08-19T02:25:26;5.70;;;5.03;;
68229;SDS011;55048;52.220;5.160;2022-08-19T02:27:52;6.47;;;5.15;;
68229;SDS011;55048;52.220;5.160;2022-08-19T02:30:20;5.10;;;4.68;;
68229;SDS011;55048;52.220;5.160;2022-08-19T02:32:46;5.65;;;5.20;;
68229;SDS011;55048;52.220;5.160;2022-08-19T02:35:14;5.90;;;5.28;;
68229;SDS011;55048;52.220;5.160;2022-08-19T02:37:41;5.85;;;5.35;;
68229;SDS011;55048;52.220;5.160;2022-08-19T02:40:26;7.93;;;5.93;;
68229;SDS011;55048;52.220;5.160;2022-08-19T02:42:52;6.57;;;5.45;;
68229;SDS011;55048;52.220;5.160;2022-08-19T02:45:17;6.40;;;5.90;;
68229;SDS011;55048;52.220;5.160;2022-08-19T02:47:43;7.57;;;5.65;;
68229;SDS011;55048;52.220;5.160;2022-08-19T02:50:08;6.22;;;5.68;;
68229;SDS011;55048;52.220;5.160;2022-08-19T02:52:34;7.43;;;6.55;;
68229;SDS011;55048;52.220;5.160;2022-08-19T02:55:00;9.32;;;6.90;;
68229;SDS011;55048;52.220;5.160;2022-08-19T02:57:26;6.93;;;6.30;;
68229;SDS011;55048;52.220;5.160;2022-08-19T02:59:52;10.82;;;6.75;;
68229;SDS011;55048;52.220;5.160;2022-08-19T03:02:17;8.90;;;7.18;;
68229;SDS011;55048;52.220;5.160;2022-08-19T03:04:43;12.07;;;7.85;;
68229;SDS011;55048;52.220;5.160;2022-08-19T03:07:09;8.55;;;7.50;;
68229;SDS011;55048;52.220;5.160;2022-08-19T03:09:38;10.73;;;8.27;;
68229;SDS011;55048;52.220;5.160;2022-08-19T03:12:04;11.13;;;8.07;;
68229;SDS011;55048;52.220;5.160;2022-08-19T03:14:30;14.38;;;9.27;;
68229;SDS011;55048;52.220;5.160;2022-08-19T03:16:56;11.85;;;9.07;;
68229;SDS011;55048;52.220;5.160;2022-08-19T03:19:22;10.60;;;9.18;;
68229;SDS011;55048;52.220;5.160;2022-08-19T03:21:48;14.30;;;10.18;;
68229;SDS011;55048;52.220;5.160;2022-08-19T03:24:14;15.63;;;10.77;;
68229;SDS011;55048;52.220;5.160;2022-08-19T03:26:43;18.52;;;11.73;;
68229;SDS011;55048;52.220;5.160;2022-08-19T03:29:11;15.63;;;11.73;;
68229;SDS011;55048;52.220;5.160;2022-08-19T03:31:37;17.38;;;13.07;;
68229;SDS011;55048;52.220;5.160;2022-08-19T03:34:04;19.75;;;13.18;;
68229;SDS011;55048;52.220;5.160;2022-08-19T03:36:29;19.95;;;13.00;;
68229;SDS011;55048;52.220;5.160;2022-08-19T03:38:56;21.45;;;13.82;;
68229;SDS011;55048;52.220;5.160;2022-08-19T03:41:24;18.60;;;13.48;;
68229;SDS011;55048;52.220;5.160;2022-08-19T03:43:56;21.17;;;14.32;;
68229;SDS011;55048;52.220;5.160;2022-08-19T03:46:24;20.25;;;14.07;;
68229;SDS011;55048;52.220;5.160;2022-08-19T03:48:54;23.35;;;13.80;;
68229;SDS011;55048;52.220;5.160;2022-08-19T03:53:51;21.27;;;14.60;;
68229;SDS011;55048;52.220;5.160;2022-08-19T03:56:18;24.52;;;15.40;;
68229;SDS011;55048;52.220;5.160;2022-08-19T03:58:43;18.83;;;13.48;;
68229;SDS011;55048;52.220;5.160;2022-08-19T04:01:14;22.95;;;16.00;;
68229;SDS011;55048;52.220;5.160;2022-08-19T04:03:41;24.08;;;15.07;;
68229;SDS011;55048;52.220;5.160;2022-08-19T04:08:43;25.65;;;14.75;;
68229;SDS011;55048;52.220;5.160;2022-08-19T04:11:14;21.48;;;15.00;;
68229;SDS011;55048;52.220;5.160;2022-08-19T04:13:41;26.88;;;15.48;;
68229;SDS011;55048;52.220;5.160;2022-08-19T04:16:08;28.25;;;15.32;;
68229;SDS011;55048;52.220;5.160;2022-08-19T04:18:35;25.42;;;16.02;;
68229;SDS011;55048;52.220;5.160;2022-08-19T04:21:01;25.23;;;15.90;;
68229;SDS011;55048;52.220;5.160;2022-08-19T04:23:27;30.02;;;17.00;;
68229;SDS011;55048;52.220;5.160;2022-08-19T04:25:55;25.33;;;16.95;;
68229;SDS011;55048;52.220;5.160;2022-08-19T04:28:21;23.48;;;15.75;;
68229;SDS011;55048;52.220;5.160;2022-08-19T04:30:49;24.98;;;16.08;;
68229;SDS011;55048;52.220;5.160;2022-08-19T04:33:17;26.15;;;16.23;;
68229;SDS011;55048;52.220;5.160;2022-08-19T04:35:48;24.90;;;16.63;;
68229;SDS011;55048;52.220;5.160;2022-08-19T04:38:15;25.48;;;15.52;;
68229;SDS011;55048;52.220;5.160;2022-08-19T04:40:43;24.35;;;15.20;;
68229;SDS011;55048;52.220;5.160;2022-08-19T04:43:29;26.52;;;16.33;;
68229;SDS011;55048;52.220;5.160;2022-08-19T04:45:55;28.55;;;17.50;;
68229;SDS011;55048;52.220;5.160;2022-08-19T04:48:21;29.45;;;18.02;;
68229;SDS011;55048;52.220;5.160;2022-08-19T04:50:51;28.27;;;17.08;;
68229;SDS011;55048;52.220;5.160;2022-08-19T04:53:25;28.15;;;17.52;;
68229;SDS011;55048;52.220;5.160;2022-08-19T04:55:55;28.33;;;17.15;;
68229;SDS011;55048;52.220;5.160;2022-08-19T04:58:22;29.40;;;16.83;;
68229;SDS011;55048;52.220;5.160;2022-08-19T05:00:49;26.23;;;16.60;;
68229;SDS011;55048;52.220;5.160;2022-08-19T05:03:15;26.55;;;16.38;;
68229;SDS011;55048;52.220;5.160;2022-08-19T05:05:42;28.42;;;16.38;;
68229;SDS011;55048;52.220;5.160;2022-08-19T05:08:13;28.85;;;17.05;;
68229;SDS011;55048;52.220;5.160;2022-08-19T05:10:44;32.25;;;19.13;;
68229;SDS011;55048;52.220;5.160;2022-08-19T05:13:10;32.78;;;19.00;;
68229;SDS011;55048;52.220;5.160;2022-08-19T05:15:36;34.13;;;19.02;;
68229;SDS011;55048;52.220;5.160;2022-08-19T05:18:01;40.85;;;20.70;;
68229;SDS011;55048;52.220;5.160;2022-08-19T05:20:45;38.83;;;21.15;;
68229;SDS011;55048;52.220;5.160;2022-08-19T05:23:29;40.45;;;21.45;;
68229;SDS011;55048;52.220;5.160;2022-08-19T05:25:55;36.92;;;20.90;;
68229;SDS011;55048;52.220;5.160;2022-08-19T05:28:20;37.28;;;21.48;;
68229;SDS011;55048;52.220;5.160;2022-08-19T05:30:46;35.63;;;20.83;;
68229;SDS011;55048;52.220;5.160;2022-08-19T05:33:13;41.40;;;23.02;;
68229;SDS011;55048;52.220;5.160;2022-08-19T05:35:39;46.38;;;22.55;;
68229;SDS011;55048;52.220;5.160;2022-08-19T05:38:06;42.22;;;22.73;;
68229;SDS011;55048;52.220;5.160;2022-08-19T05:40:39;47.15;;;25.55;;
68229;SDS011;55048;52.220;5.160;2022-08-19T05:43:06;50.10;;;26.60;;
68229;SDS011;55048;52.220;5.160;2022-08-19T05:45:37;62.55;;;26.00;;
68229;SDS011;55048;52.220;5.160;2022-08-19T05:48:04;53.45;;;27.20;;
68229;SDS011;55048;52.220;5.160;2022-08-19T05:50:30;63.00;;;30.63;;
68229;SDS011;55048;52.220;5.160;2022-08-19T05:52:55;66.47;;;30.35;;
68229;SDS011;55048;52.220;5.160;2022-08-19T05:55:21;70.50;;;31.00;;
68229;SDS011;55048;52.220;5.160;2022-08-19T05:57:47;67.22;;;30.70;;
68229;SDS011;55048;52.220;5.160;2022-08-19T06:00:13;76.95;;;33.25;;
68229;SDS011;55048;52.220;5.160;2022-08-19T06:02:38;75.93;;;32.97;;
68229;SDS011;55048;52.220;5.160;2022-08-19T06:05:04;74.03;;;32.95;;
68229;SDS011;55048;52.220;5.160;2022-08-19T06:07:34;70.88;;;32.58;;
68229;SDS011;55048;52.220;5.160;2022-08-19T06:10:00;71.15;;;33.15;;
68229;SDS011;55048;52.220;5.160;2022-08-19T06:12:26;80.57;;;34.40;;
68229;SDS011;55048;52.220;5.160;2022-08-19T06:14:58;73.40;;;33.25;;
68229;SDS011;55048;52.220;5.160;2022-08-19T06:17:24;77.18;;;33.78;;
68229;SDS011;55048;52.220;5.160;2022-08-19T06:19:51;79.60;;;34.85;;
68229;SDS011;55048;52.220;5.160;2022-08-19T06:22:16;94.10;;;36.85;;
68229;SDS011;55048;52.220;5.160;2022-08-19T06:24:42;100.75;;;35.92;;
68229;SDS011;55048;52.220;5.160;2022-08-19T06:27:07;100.28;;;37.80;;
68229;SDS011;55048;52.220;5.160;2022-08-19T06:29:33;100.68;;;36.80;;
68229;SDS011;55048;52.220;5.160;2022-08-19T06:32:00;82.25;;;31.92;;
68229;SDS011;55048;52.220;5.160;2022-08-19T06:34:28;97.93;;;35.08;;
68229;SDS011;55048;52.220;5.160;2022-08-19T06:36:57;97.22;;;36.03;;
68229;SDS011;55048;52.220;5.160;2022-08-19T06:39:29;96.20;;;37.88;;
68229;SDS011;55048;52.220;5.160;2022-08-19T06:41:58;103.90;;;37.75;;
68229;SDS011;55048;52.220;5.160;2022-08-19T06:44:28;114.35;;;39.72;;
68229;SDS011;55048;52.220;5.160;2022-08-19T06:47:00;111.20;;;38.13;;
68229;SDS011;55048;52.220;5.160;2022-08-19T06:49:27;117.90;;;39.95;;
68229;SDS011;55048;52.220;5.160;2022-08-19T06:51:56;102.40;;;37.38;;
68229;SDS011;55048;52.220;5.160;2022-08-19T06:54:22;124.85;;;41.45;;
68229;SDS011;55048;52.220;5.160;2022-08-19T06:56:48;109.43;;;40.78;;
68229;SDS011;55048;52.220;5.160;2022-08-19T06:59:15;117.45;;;40.40;;
68229;SDS011;55048;52.220;5.160;2022-08-19T07:01:44;119.07;;;41.58;;
68229;SDS011;55048;52.220;5.160;2022-08-19T07:06:43;122.20;;;43.17;;
68229;SDS011;55048;52.220;5.160;2022-08-19T07:09:09;129.85;;;44.47;;
68229;SDS011;55048;52.220;5.160;2022-08-19T07:11:37;112.93;;;41.55;;
68229;SDS011;55048;52.220;5.160;2022-08-19T07:14:03;114.53;;;43.30;;
68229;SDS011;55048;52.220;5.160;2022-08-19T07:16:29;126.10;;;46.60;;
68229;SDS011;55048;52.220;5.160;2022-08-19T07:18:55;125.97;;;44.25;;
68229;SDS011;55048;52.220;5.160;2022-08-19T07:21:22;117.53;;;45.00;;
68229;SDS011;55048;52.220;5.160;2022-08-19T07:23:53;113.40;;;43.17;;
68229;SDS011;55048;52.220;5.160;2022-08-19T07:26:22;111.30;;;44.70;;
68229;SDS011;55048;52.220;5.160;2022-08-19T07:28:52;118.97;;;45.03;;
68229;SDS011;55048;52.220;5.160;2022-08-19T07:31:18;108.78;;;45.78;;
68229;SDS011;55048;52.220;5.160;2022-08-19T07:33:47;113.32;;;45.65;;
68229;SDS011;55048;52.220;5.160;2022-08-19T07:36:15;109.50;;;44.30;;
68229;SDS011;55048;52.220;5.160;2022-08-19T07:38:43;113.05;;;46.20;;
68229;SDS011;55048;52.220;5.160;2022-08-19T07:41:12;111.60;;;46.35;;
68229;SDS011;55048;52.220;5.160;2022-08-19T07:43:39;110.43;;;47.05;;
68229;SDS011;55048;52.220;5.160;2022-08-19T07:46:04;105.40;;;45.58;;
68229;SDS011;55048;52.220;5.160;2022-08-19T07:48:31;108.40;;;45.28;;
68229;SDS011;55048;52.220;5.160;2022-08-19T07:50:58;108.68;;;46.25;;
68229;SDS011;55048;52.220;5.160;2022-08-19T07:53:29;92.53;;;44.75;;
68229;SDS011;55048;52.220;5.160;2022-08-19T07:55:56;107.57;;;47.17;;
68229;SDS011;55048;52.220;5.160;2022-08-19T07:58:28;90.57;;;43.05;;
68229;SDS011;55048;52.220;5.160;2022-08-19T08:00:56;98.32;;;46.47;;
68229;SDS011;55048;52.220;5.160;2022-08-19T08:03:22;101.00;;;46.13;;
68229;SDS011;55048;52.220;5.160;2022-08-19T08:06:08;95.25;;;45.97;;
68229;SDS011;55048;52.220;5.160;2022-08-19T08:08:52;95.82;;;45.33;;
68229;SDS011;55048;52.220;5.160;2022-08-19T08:11:37;92.97;;;44.75;;
68229;SDS011;55048;52.220;5.160;2022-08-19T08:14:04;95.35;;;45.53;;
68229;SDS011;55048;52.220;5.160;2022-08-19T08:16:34;99.72;;;46.25;;
68229;SDS011;55048;52.220;5.160;2022-08-19T08:19:03;91.95;;;44.40;;
68229;SDS011;55048;52.220;5.160;2022-08-19T08:21:30;90.70;;;45.13;;
68229;SDS011;55048;52.220;5.160;2022-08-19T08:23:56;85.07;;;43.28;;
68229;SDS011;55048;52.220;5.160;2022-08-19T08:26:22;88.03;;;43.20;;
68229;SDS011;55048;52.220;5.160;2022-08-19T08:28:47;94.63;;;44.40;;
68229;SDS011;55048;52.220;5.160;2022-08-19T08:31:13;87.07;;;45.20;;
68229;SDS011;55048;52.220;5.160;2022-08-19T08:33:39;91.30;;;44.75;;
68229;SDS011;55048;52.220;5.160;2022-08-19T08:36:07;88.22;;;44.30;;
68229;SDS011;55048;52.220;5.160;2022-08-19T08:38:34;88.05;;;44.88;;
68229;SDS011;55048;52.220;5.160;2022-08-19T08:41:01;84.43;;;43.17;;
68229;SDS011;55048;52.220;5.160;2022-08-19T08:43:35;80.22;;;42.55;;
68229;SDS011;55048;52.220;5.160;2022-08-19T08:46:08;77.45;;;42.22;;
68229;SDS011;55048;52.220;5.160;2022-08-19T08:48:50;79.85;;;40.38;;
68229;SDS011;55048;52.220;5.160;2022-08-19T08:51:25;75.25;;;42.10;;
68229;SDS011;55048;52.220;5.160;2022-08-19T08:53:58;76.32;;;41.63;;
68229;SDS011;55048;52.220;5.160;2022-08-19T08:56:24;76.70;;;42.20;;
68229;SDS011;55048;52.220;5.160;2022-08-19T08:58:58;70.93;;;39.35;;
68229;SDS011;55048;52.220;5.160;2022-08-19T09:01:26;72.15;;;39.63;;
68229;SDS011;55048;52.220;5.160;2022-08-19T09:03:52;72.07;;;39.20;;
68229;SDS011;55048;52.220;5.160;2022-08-19T09:06:51;67.28;;;38.80;;
68229;SDS011;55048;52.220;5.160;2022-08-19T09:14:52;69.57;;;37.80;;
68229;SDS011;55048;52.220;5.160;2022-08-19T09:17:24;60.83;;;37.30;;
68229;SDS011;55048;52.220;5.160;2022-08-19T09:22:33;60.00;;;37.17;;
68229;SDS011;55048;52.220;5.160;2022-08-19T09:24:59;62.22;;;37.55;;
68229;SDS011;55048;52.220;5.160;2022-08-19T09:27:25;59.50;;;35.65;;
68229;SDS011;55048;52.220;5.160;2022-08-19T09:29:52;58.10;;;35.33;;
68229;SDS011;55048;52.220;5.160;2022-08-19T09:32:19;54.10;;;33.65;;
68229;SDS011;55048;52.220;5.160;2022-08-19T09:34:45;56.83;;;33.17;;
68229;SDS011;55048;52.220;5.160;2022-08-19T09:37:11;52.15;;;31.00;;
68229;SDS011;55048;52.220;5.160;2022-08-19T09:39:37;51.80;;;31.08;;
68229;SDS011;55048;52.220;5.160;2022-08-19T09:42:05;50.88;;;32.20;;
68229;SDS011;55048;52.220;5.160;2022-08-19T09:44:36;54.10;;;31.05;;
68229;SDS011;55048;52.220;5.160;2022-08-19T09:47:04;54.97;;;32.45;;
68229;SDS011;55048;52.220;5.160;2022-08-19T09:49:30;52.28;;;31.52;;
68229;SDS011;55048;52.220;5.160;2022-08-19T09:51:56;51.80;;;29.88;;
68229;SDS011;55048;52.220;5.160;2022-08-19T09:54:22;47.95;;;28.92;;
68229;SDS011;55048;52.220;5.160;2022-08-19T09:56:48;51.38;;;30.20;;
68229;SDS011;55048;52.220;5.160;2022-08-19T09:59:13;46.13;;;27.50;;
68229;SDS011;55048;52.220;5.160;2022-08-19T10:01:39;42.35;;;26.83;;
68229;SDS011;55048;52.220;5.160;2022-08-19T10:04:05;43.90;;;27.48;;
68229;SDS011;55048;52.220;5.160;2022-08-19T10:06:34;44.47;;;27.70;;
68229;SDS011;55048;52.220;5.160;2022-08-19T10:09:01;41.33;;;26.98;;
68229;SDS011;55048;52.220;5.160;2022-08-19T10:11:31;39.28;;;27.20;;
68229;SDS011;55048;52.220;5.160;2022-08-19T10:14:02;45.58;;;27.25;;
68229;SDS011;55048;52.220;5.160;2022-08-19T10:16:30;67.97;;;38.38;;
68229;SDS011;55048;52.220;5.160;2022-08-19T10:18:56;41.70;;;26.42;;
68229;SDS011;55048;52.220;5.160;2022-08-19T10:21:23;43.80;;;24.30;;
68229;SDS011;55048;52.220;5.160;2022-08-19T10:23:52;33.75;;;22.50;;
68229;SDS011;55048;52.220;5.160;2022-08-19T10:26:20;35.95;;;23.08;;
68229;SDS011;55048;52.220;5.160;2022-08-19T10:28:49;36.65;;;22.48;;
68229;SDS011;55048;52.220;5.160;2022-08-19T10:31:19;35.53;;;21.08;;
68229;SDS011;55048;52.220;5.160;2022-08-19T10:33:48;37.75;;;24.55;;
68229;SDS011;55048;52.220;5.160;2022-08-19T10:36:18;35.40;;;21.23;;
68229;SDS011;55048;52.220;5.160;2022-08-19T10:38:50;36.95;;;23.13;;
68229;SDS011;55048;52.220;5.160;2022-08-19T10:43:44;35.03;;;20.90;;
68229;SDS011;55048;52.220;5.160;2022-08-19T10:46:11;31.10;;;20.75;;
68229;SDS011;55048;52.220;5.160;2022-08-19T10:48:39;31.47;;;17.93;;
68229;SDS011;55048;52.220;5.160;2022-08-19T10:51:05;25.77;;;14.85;;
68229;SDS011;55048;52.220;5.160;2022-08-19T10:53:50;24.25;;;14.85;;
68229;SDS011;55048;52.220;5.160;2022-08-19T10:56:15;28.10;;;15.40;;
68229;SDS011;55048;52.220;5.160;2022-08-19T10:58:59;26.10;;;15.05;;
68229;SDS011;55048;52.220;5.160;2022-08-19T11:01:26;23.83;;;14.85;;
68229;SDS011;55048;52.220;5.160;2022-08-19T11:03:52;19.50;;;12.05;;
68229;SDS011;55048;52.220;5.160;2022-08-19T11:06:18;23.40;;;11.90;;
68229;SDS011;55048;52.220;5.160;2022-08-19T11:08:44;21.10;;;11.40;;
68229;SDS011;55048;52.220;5.160;2022-08-19T11:11:10;17.65;;;11.60;;
68229;SDS011;55048;52.220;5.160;2022-08-19T11:13:37;16.88;;;9.90;;
68229;SDS011;55048;52.220;5.160;2022-08-19T11:18:33;10.50;;;6.28;;
68229;SDS011;55048;52.220;5.160;2022-08-19T11:21:21;14.00;;;7.38;;
68229;SDS011;55048;52.220;5.160;2022-08-19T11:23:50;19.90;;;9.45;;
68229;SDS011;55048;52.220;5.160;2022-08-19T11:26:17;19.20;;;11.30;;
68229;SDS011;55048;52.220;5.160;2022-08-19T11:28:47;25.83;;;11.70;;
68229;SDS011;55048;52.220;5.160;2022-08-19T11:31:14;27.40;;;11.83;;
68229;SDS011;55048;52.220;5.160;2022-08-19T11:33:41;22.17;;;10.00;;
68229;SDS011;55048;52.220;5.160;2022-08-19T11:36:07;18.17;;;11.98;;
68229;SDS011;55048;52.220;5.160;2022-08-19T11:38:33;19.58;;;10.85;;
68229;SDS011;55048;52.220;5.160;2022-08-19T11:41:01;22.75;;;11.45;;
68229;SDS011;55048;52.220;5.160;2022-08-19T11:43:29;20.13;;;13.32;;
68229;SDS011;55048;52.220;5.160;2022-08-19T11:45:56;23.65;;;12.82;;
68229;SDS011;55048;52.220;5.160;2022-08-19T11:48:22;20.92;;;14.23;;
68229;SDS011;55048;52.220;5.160;2022-08-19T11:50:49;28.98;;;17.35;;
68229;SDS011;55048;52.220;5.160;2022-08-19T11:53:16;30.00;;;18.50;;
68229;SDS011;55048;52.220;5.160;2022-08-19T11:55:44;28.85;;;19.30;;
68229;SDS011;55048;52.220;5.160;2022-08-19T11:58:10;26.13;;;17.40;;
68229;SDS011;55048;52.220;5.160;2022-08-19T12:00:37;27.73;;;18.63;;
68229;SDS011;55048;52.220;5.160;2022-08-19T12:03:03;27.63;;;18.17;;
68229;SDS011;55048;52.220;5.160;2022-08-19T12:05:29;22.23;;;16.15;;
68229;SDS011;55048;52.220;5.160;2022-08-19T12:07:54;21.13;;;15.07;;
68229;SDS011;55048;52.220;5.160;2022-08-19T12:10:21;22.20;;;15.40;;
68229;SDS011;55048;52.220;5.160;2022-08-19T12:12:47;15.98;;;14.18;;
68229;SDS011;55048;52.220;5.160;2022-08-19T12:15:13;24.05;;;14.98;;
68229;SDS011;55048;52.220;5.160;2022-08-19T12:17:39;23.50;;;14.45;;
68229;SDS011;55048;52.220;5.160;2022-08-19T12:20:06;22.73;;;14.27;;
68229;SDS011;55048;52.220;5.160;2022-08-19T12:22:34;22.63;;;15.05;;
68229;SDS011;55048;52.220;5.160;2022-08-19T12:25:00;17.73;;;11.48;;
68229;SDS011;55048;52.220;5.160;2022-08-19T12:27:26;20.75;;;12.25;;
68229;SDS011;55048;52.220;5.160;2022-08-19T12:29:51;17.98;;;11.73;;
68229;SDS011;55048;52.220;5.160;2022-08-19T12:32:17;19.75;;;11.00;;
68229;SDS011;55048;52.220;5.160;2022-08-19T12:34:42;22.95;;;11.50;;
68229;SDS011;55048;52.220;5.160;2022-08-19T12:37:08;15.95;;;10.63;;
68229;SDS011;55048;52.220;5.160;2022-08-19T12:39:36;16.98;;;9.73;;
68229;SDS011;55048;52.220;5.160;2022-08-19T12:42:03;10.48;;;8.50;;
68229;SDS011;55048;52.220;5.160;2022-08-19T12:44:29;22.60;;;8.88;;
68229;SDS011;55048;52.220;5.160;2022-08-19T12:46:56;8.57;;;6.63;;
68229;SDS011;55048;52.220;5.160;2022-08-19T12:49:21;15.85;;;8.07;;
68229;SDS011;55048;52.220;5.160;2022-08-19T12:51:47;13.25;;;6.20;;
68229;SDS011;55048;52.220;5.160;2022-08-19T12:54:12;12.82;;;6.03;;
68229;SDS011;55048;52.220;5.160;2022-08-19T12:56:37;13.50;;;5.30;;
68229;SDS011;55048;52.220;5.160;2022-08-19T12:59:03;10.93;;;4.90;;
68229;SDS011;55048;52.220;5.160;2022-08-19T13:01:29;15.43;;;6.22;;
68229;SDS011;55048;52.220;5.160;2022-08-19T13:03:57;14.13;;;6.93;;
68229;SDS011;55048;52.220;5.160;2022-08-19T13:06:23;11.88;;;5.60;;
68229;SDS011;55048;52.220;5.160;2022-08-19T13:08:49;11.13;;;5.32;;
68229;SDS011;55048;52.220;5.160;2022-08-19T13:11:15;10.27;;;5.57;;
68229;SDS011;55048;52.220;5.160;2022-08-19T13:13:44;13.32;;;5.32;;
68229;SDS011;55048;52.220;5.160;2022-08-19T13:16:12;9.90;;;5.53;;
68229;SDS011;55048;52.220;5.160;2022-08-19T13:18:38;14.18;;;5.15;;
68229;SDS011;55048;52.220;5.160;2022-08-19T13:21:05;9.77;;;4.63;;
68229;SDS011;55048;52.220;5.160;2022-08-19T13:23:34;9.82;;;4.75;;
68229;SDS011;55048;52.220;5.160;2022-08-19T13:26:06;7.53;;;4.50;;
68229;SDS011;55048;52.220;5.160;2022-08-19T13:28:34;12.20;;;5.15;;
68229;SDS011;55048;52.220;5.160;2022-08-19T13:31:19;11.57;;;4.90;;
68229;SDS011;55048;52.220;5.160;2022-08-19T13:34:05;11.57;;;4.72;;
68229;SDS011;55048;52.220;5.160;2022-08-19T13:36:34;7.15;;;4.38;;
68229;SDS011;55048;52.220;5.160;2022-08-19T13:41:26;9.98;;;4.25;;
68229;SDS011;55048;52.220;5.160;2022-08-19T13:43:52;10.90;;;4.97;;
68229;SDS011;55048;52.220;5.160;2022-08-19T13:46:19;9.70;;;3.33;;
68229;SDS011;55048;52.220;5.160;2022-08-19T13:48:44;6.15;;;2.80;;
68229;SDS011;55048;52.220;5.160;2022-08-19T13:51:10;6.68;;;3.05;;
68229;SDS011;55048;52.220;5.160;2022-08-19T13:53:39;7.07;;;3.08;;
68229;SDS011;55048;52.220;5.160;2022-08-19T13:56:05;10.98;;;2.83;;
68229;SDS011;55048;52.220;5.160;2022-08-19T13:58:32;5.38;;;2.45;;
68229;SDS011;55048;52.220;5.160;2022-08-19T14:00:57;4.97;;;2.00;;
68229;SDS011;55048;52.220;5.160;2022-08-19T14:03:24;6.05;;;2.03;;
68229;SDS011;55048;52.220;5.160;2022-08-19T14:05:50;3.88;;;2.00;;
68229;SDS011;55048;52.220;5.160;2022-08-19T14:08:15;4.45;;;1.50;;
68229;SDS011;55048;52.220;5.160;2022-08-19T14:10:41;6.07;;;1.77;;
68229;SDS011;55048;52.220;5.160;2022-08-19T14:13:09;4.13;;;1.40;;
68229;SDS011;55048;52.220;5.160;2022-08-19T14:15:35;3.50;;;1.38;;
68229;SDS011;55048;52.220;5.160;2022-08-19T14:18:02;3.83;;;1.70;;
68229;SDS011;55048;52.220;5.160;2022-08-19T14:20:28;5.68;;;2.00;;
68229;SDS011;55048;52.220;5.160;2022-08-19T14:22:54;3.00;;;1.48;;
68229;SDS011;55048;52.220;5.160;2022-08-19T14:25:24;6.45;;;1.60;;
68229;SDS011;55048;52.220;5.160;2022-08-19T14:27:52;3.65;;;1.58;;
68229;SDS011;55048;52.220;5.160;2022-08-19T14:30:20;8.18;;;1.17;;
68229;SDS011;55048;52.220;5.160;2022-08-19T14:32:54;2.15;;;1.20;;
68229;SDS011;55048;52.220;5.160;2022-08-19T14:35:21;5.95;;;1.23;;
68229;SDS011;55048;52.220;5.160;2022-08-19T14:37:48;3.35;;;1.30;;
68229;SDS011;55048;52.220;5.160;2022-08-19T14:40:16;5.40;;;1.27;;
68229;SDS011;55048;52.220;5.160;2022-08-19T14:42:45;4.32;;;1.05;;
68229;SDS011;55048;52.220;5.160;2022-08-19T14:45:11;5.78;;;1.30;;
68229;SDS011;55048;52.220;5.160;2022-08-19T14:47:37;4.25;;;1.23;;
68229;SDS011;55048;52.220;5.160;2022-08-19T14:50:04;4.07;;;1.25;;
68229;SDS011;55048;52.220;5.160;2022-08-19T14:52:33;4.53;;;1.00;;
68229;SDS011;55048;52.220;5.160;2022-08-19T14:54:58;4.80;;;1.17;;